Time;durP1;ratioP1;P1;durP2;ratioP2;P2;SDS_P1;SDS_P2;PMS_P1;PMS_P2;Temp;Humidity;BMP_temperature;BMP_pressure;BME280_temperature;BME280_humidity;BME280_pressure;Samples;Min_cycle;Max_cycle;Signal;HPM_P1;HPM_P2
2022/07/14 00:02:18;;;;;;;;;47.00;40.20;;;;;;;;5225670;28;8771;-78
2022/07/14 00:04:49;;;;;;;;;42.20;36.40;;;;;;;;5226755;28;8795;-77
2022/07/14 00:07:20;;;;;;;;;29.75;29.75;;;;;;;;5208970;28;9514;-77
2022/07/14 00:09:50;;;;;;;;;27.67;27.67;;;;;;;;5225333;28;8803;-76
2022/07/14 00:12:40;;;;;;;;;29.75;29.50;;;;;;;;5194275;28;11533;-80
2022/07/14 00:15:11;;;;;;;;;25.25;25.25;;;;;;;;5208423;28;9561;-78
2022/07/14 00:17:42;;;;;;;;;24.00;24.00;;;;;;;;5225163;28;8871;-79
2022/07/14 00:20:13;;;;;;;;;24.00;23.50;;;;;;;;5208473;28;8833;-78
2022/07/14 00:22:44;;;;;;;;;24.50;24.50;;;;;;;;5208482;28;8771;-80
2022/07/14 00:25:15;;;;;;;;;19.33;19.33;;;;;;;;5224947;28;8787;-77
2022/07/14 00:27:46;;;;;;;;;17.25;17.25;;;;;;;;5225866;28;11469;-77
2022/07/14 00:30:17;;;;;;;;;19.00;18.75;;;;;;;;5207924;28;8802;-77
2022/07/14 00:32:48;;;;;;;;;18.00;18.00;;;;;;;;5191547;28;8798;-80
2022/07/14 00:35:20;;;;;;;;;19.50;19.50;;;;;;;;5208414;28;8811;-81
2022/07/14 00:37:51;;;;;;;;;21.25;21.25;;;;;;;;5224771;28;8759;-80
2022/07/14 00:40:22;;;;;;;;;17.00;17.00;;;;;;;;5225120;28;8783;-79
2022/07/14 00:43:11;;;;;;;;;21.50;21.50;;;;;;;;5226602;28;8856;-78
2022/07/14 00:45:43;;;;;;;;;19.00;19.00;;;;;;;;5225978;28;8787;-79
2022/07/14 00:48:14;;;;;;;;;23.75;23.75;;;;;;;;5207581;28;8806;-80
2022/07/14 00:50:45;;;;;;;;;20.25;20.25;;;;;;;;5224494;28;8818;-78
2022/07/14 00:53:17;;;;;;;;;23.25;22.75;;;;;;;;5225455;28;8839;-79
2022/07/14 00:56:06;;;;;;;;;20.75;20.75;;;;;;;;5208037;28;8826;-79
2022/07/14 00:58:37;;;;;;;;;19.00;19.00;;;;;;;;5191611;28;8779;-78
2022/07/14 01:01:08;;;;;;;;;19.25;19.25;;;;;;;;5207893;28;8834;-77
2022/07/14 01:03:39;;;;;;;;;19.75;19.75;;;;;;;;5224541;28;8875;-78
2022/07/14 01:06:10;;;;;;;;;41.25;36.50;;;;;;;;5223930;28;9518;-79
2022/07/14 01:08:41;;;;;;;;;45.80;39.40;;;;;;;;5191375;28;8877;-79
2022/07/14 01:11:13;;;;;;;;;41.80;36.60;;;;;;;;5207121;28;8795;-81
2022/07/14 01:14:03;;;;;;;;;25.75;25.75;;;;;;;;5207740;28;8790;-79
2022/07/14 01:16:34;;;;;;;;;27.50;27.50;;;;;;;;5208232;28;8880;-80
2022/07/14 01:19:05;;;;;;;;;22.50;22.50;;;;;;;;5207265;28;8810;-80
2022/07/14 01:21:36;;;;;;;;;22.00;22.00;;;;;;;;5207347;28;8822;-79
2022/07/14 01:24:08;;;;;;;;;19.25;19.25;;;;;;;;5225021;28;8793;-81
2022/07/14 01:26:39;;;;;;;;;26.50;26.50;;;;;;;;5212154;28;8966;-79
2022/07/14 01:29:11;;;;;;;;;20.50;20.50;;;;;;;;5210987;28;8973;-80
2022/07/14 01:31:43;;;;;;;;;26.50;26.50;;;;;;;;5211894;28;8878;-80
2022/07/14 01:34:14;;;;;;;;;20.50;20.50;;;;;;;;5211806;28;8822;-79
2022/07/14 01:36:45;;;;;;;;;18.75;18.75;;;;;;;;5228397;28;8817;-82
2022/07/14 01:39:35;;;;;;;;;18.00;18.00;;;;;;;;5211853;28;8944;-79
2022/07/14 01:42:06;;;;;;;;;18.25;18.25;;;;;;;;5212003;28;8779;-75
2022/07/14 01:44:38;;;;;;;;;18.00;18.00;;;;;;;;5210836;28;8829;-79
2022/07/14 01:47:09;;;;;;;;;14.75;14.75;;;;;;;;5229320;28;8791;-79
2022/07/14 01:49:41;;;;;;;;;18.00;18.00;;;;;;;;5207549;28;8806;-78
2022/07/14 01:52:13;;;;;;;;;15.50;15.50;;;;;;;;5207265;28;8835;-77
2022/07/14 01:54:45;;;;;;;;;15.00;15.00;;;;;;;;5207766;28;8787;-78
2022/07/14 01:57:18;;;;;;;;;16.75;16.75;;;;;;;;5207511;28;8793;-77
2022/07/14 01:59:49;;;;;;;;;14.50;14.50;;;;;;;;5207815;28;8781;-77
2022/07/14 02:02:22;;;;;;;;;17.50;17.50;;;;;;;;5211049;28;8833;-76
2022/07/14 02:04:53;;;;;;;;;15.00;15.00;;;;;;;;5211043;28;9516;-74
2022/07/14 02:07:24;;;;;;;;;16.00;16.00;;;;;;;;5227556;28;10221;-81
2022/07/14 02:13:02;;;;;;;;;13.75;13.75;;;;;;;;5211113;28;8778;-75
2022/07/14 02:15:33;;;;;;;;;15.75;15.75;;;;;;;;5210373;28;8826;-75
2022/07/14 02:18:05;;;;;;;;;22.00;22.00;;;;;;;;5227350;28;8811;-75
2022/07/14 02:20:36;;;;;;;;;18.50;18.50;;;;;;;;5227624;28;8759;-76
2022/07/14 02:23:07;;;;;;;;;18.50;18.50;;;;;;;;5210868;28;8845;-77
2022/07/14 02:25:38;;;;;;;;;16.50;16.50;;;;;;;;5227108;28;9561;-77
2022/07/14 02:28:09;;;;;;;;;15.75;15.75;;;;;;;;5227388;28;9639;-77
2022/07/14 02:30:40;;;;;;;;;17.75;17.75;;;;;;;;5177099;28;8979;-78
2022/07/14 02:33:30;;;;;;;;;18.25;18.25;;;;;;;;5228509;28;8893;-78
2022/07/14 02:36:01;;;;;;;;;17.75;17.00;;;;;;;;5194325;28;8958;-78
2022/07/14 02:38:32;;;;;;;;;18.75;18.75;;;;;;;;5210652;28;9524;-78
2022/07/14 02:41:21;;;;;;;;;21.00;21.00;;;;;;;;5197176;28;9473;-78
2022/07/14 02:43:52;;;;;;;;;12.25;12.25;;;;;;;;5195006;28;8782;-77
2022/07/14 02:46:24;;;;;;;;;14.25;14.25;;;;;;;;5212269;28;8778;-77
2022/07/14 02:48:56;;;;;;;;;15.50;15.50;;;;;;;;5228004;28;8799;-77
2022/07/14 02:51:46;;;;;;;;;18.00;18.00;;;;;;;;5226973;28;8803;-77
2022/07/14 02:54:17;;;;;;;;;16.00;16.00;;;;;;;;5210918;28;8830;-76
2022/07/14 02:56:50;;;;;;;;;16.00;16.00;;;;;;;;5210045;28;8815;-76
2022/07/14 02:59:21;;;;;;;;;20.75;20.75;;;;;;;;5227549;28;8791;-75
2022/07/14 03:01:55;;;;;;;;;17.75;17.75;;;;;;;;5226795;28;8767;-75
2022/07/14 03:04:27;;;;;;;;;18.75;18.75;;;;;;;;5193669;28;8818;-76
2022/07/14 03:07:00;;;;;;;;;18.00;18.00;;;;;;;;5226761;28;9623;-76
2022/07/14 03:09:31;;;;;;;;;21.25;21.25;;;;;;;;5226528;28;8763;-76
2022/07/14 03:12:05;;;;;;;;;22.00;22.00;;;;;;;;5209223;28;8789;-76
2022/07/14 03:14:39;;;;;;;;;18.75;18.75;;;;;;;;5208708;28;8786;-76
2022/07/14 03:17:11;;;;;;;;;16.50;16.50;;;;;;;;5226478;28;9671;-76
2022/07/14 03:19:43;;;;;;;;;17.75;17.75;;;;;;;;5209860;28;8766;-77
2022/07/14 03:22:17;;;;;;;;;15.00;15.00;;;;;;;;5176127;28;8783;-78
2022/07/14 03:24:48;;;;;;;;;19.25;19.25;;;;;;;;5209320;28;9280;-78
2022/07/14 03:27:20;;;;;;;;;19.75;19.75;;;;;;;;5193435;28;8771;-78
2022/07/14 03:29:51;;;;;;;;;17.50;17.50;;;;;;;;5225894;28;8919;-79
2022/07/14 03:32:23;;;;;;;;;21.25;21.25;;;;;;;;5210705;28;8802;-79
2022/07/14 03:34:55;;;;;;;;;21.50;21.25;;;;;;;;5226027;28;8790;-79
2022/07/14 03:37:26;;;;;;;;;19.00;19.00;;;;;;;;5193553;28;8786;-76
2022/07/14 03:40:03;;;;;;;;;19.75;19.75;;;;;;;;5209383;28;8771;-76
2022/07/14 03:42:34;;;;;;;;;19.75;19.75;;;;;;;;5225860;28;8767;-75
2022/07/14 03:45:05;;;;;;;;;21.50;21.50;;;;;;;;5225815;28;8775;-77
2022/07/14 03:47:38;;;;;;;;;20.00;20.00;;;;;;;;5208491;28;9528;-76
2022/07/14 03:50:10;;;;;;;;;19.00;19.00;;;;;;;;5209402;28;8767;-77
2022/07/14 03:52:41;;;;;;;;;22.50;22.50;;;;;;;;5226967;28;8779;-77
2022/07/14 03:55:13;;;;;;;;;17.00;16.50;;;;;;;;5209279;28;8810;-77
2022/07/14 03:57:44;;;;;;;;;21.00;21.00;;;;;;;;5208779;28;8802;-77
2022/07/14 04:00:16;;;;;;;;;18.25;18.25;;;;;;;;5176327;28;8800;-77
2022/07/14 04:02:52;;;;;;;;;18.75;18.00;;;;;;;;5225213;28;8787;-78
2022/07/14 04:05:29;;;;;;;;;19.75;19.25;;;;;;;;5225705;28;8790;-78
2022/07/14 04:08:14;;;;;;;;;14.75;14.75;;;;;;;;5225999;28;8775;-78
2022/07/14 04:10:53;;;;;;;;;19.25;19.25;;;;;;;;5226570;28;9547;-78
2022/07/14 04:13:26;;;;;;;;;59.60;48.60;;;;;;;;5208795;28;8771;-78
2022/07/14 04:15:57;;;;;;;;;19.25;19.25;;;;;;;;5225256;28;9536;-78
2022/07/14 04:18:29;;;;;;;;;17.00;17.00;;;;;;;;5192872;28;8799;-78
2022/07/14 04:21:00;;;;;;;;;17.00;17.00;;;;;;;;5208269;28;8798;-78
2022/07/14 04:23:31;;;;;;;;;13.25;13.25;;;;;;;;5226774;28;8799;-83
2022/07/14 04:26:03;;;;;;;;;52.40;44.60;;;;;;;;5208181;28;8818;-78
2022/07/14 04:28:34;;;;;;;;;13.50;13.50;;;;;;;;5208160;28;8766;-79
2022/07/14 04:31:08;;;;;;;;;18.25;18.25;;;;;;;;5189846;28;8802;-77
2022/07/14 04:33:40;;;;;;;;;13.75;13.75;;;;;;;;5210064;28;8798;-83
2022/07/14 04:36:12;;;;;;;;;16.25;16.25;;;;;;;;5186816;28;8815;-86
2022/07/14 04:38:45;;;;;;;;;16.00;16.00;;;;;;;;5192215;28;8818;-77
2022/07/14 04:41:16;;;;;;;;;17.00;16.50;;;;;;;;5192020;28;8797;-76
2022/07/14 04:44:05;;;;;;;;;17.75;17.75;;;;;;;;5226800;28;8807;-75
2022/07/14 04:46:36;;;;;;;;;17.75;17.75;;;;;;;;5228453;28;8790;-77
2022/07/14 04:52:02;;;;;;;;;23.75;23.75;;;;;;;;5231054;28;8824;-75
2022/07/14 04:54:49;;;;;;;;;16.00;15.00;;;;;;;;5218429;28;8835;-75
2022/07/14 04:57:50;;;;;;;;;17.00;17.00;;;;;;;;5150330;28;8790;-76
2022/07/14 05:00:22;;;;;;;;;16.00;16.00;;;;;;;;5209284;28;8786;-76
2022/07/14 05:02:53;;;;;;;;;18.25;18.25;;;;;;;;5224437;28;8821;-76
2022/07/14 05:05:24;;;;;;;;;17.25;17.25;;;;;;;;5225822;28;8795;-74
2022/07/14 05:07:55;;;;;;;;;20.00;20.00;;;;;;;;5223721;28;8860;-76
2022/07/14 05:10:32;;;;;;;;;20.25;20.25;;;;;;;;5207140;28;8786;-75
2022/07/14 05:13:20;;;;;;;;;17.50;17.50;;;;;;;;5207747;28;8755;-75
2022/07/14 05:15:53;;;;;;;;;68.40;56.80;;;;;;;;5175211;28;8794;-76
2022/07/14 05:18:43;;;;;;;;;24.75;24.75;;;;;;;;5207238;28;8835;-75
2022/07/14 05:21:15;;;;;;;;;19.50;19.50;;;;;;;;5205509;28;8817;-75
2022/07/14 05:23:46;;;;;;;;;16.75;16.75;;;;;;;;5203091;28;8824;-74
2022/07/14 05:26:18;;;;;;;;;23.00;21.25;;;;;;;;5202023;28;8804;-75
2022/07/14 05:28:49;;;;;;;;;17.75;17.75;;;;;;;;5191105;28;8822;-75
2022/07/14 05:31:20;;;;;;;;;21.75;21.75;;;;;;;;5211452;28;8815;-75
2022/07/14 05:33:56;;;;;;;;;19.75;19.75;;;;;;;;5185103;28;8830;-74
2022/07/14 05:36:28;;;;;;;;;18.50;18.50;;;;;;;;5195460;28;8857;-75
2022/07/14 05:39:00;;;;;;;;;19.75;19.75;;;;;;;;5154147;28;8835;-74
2022/07/14 05:41:33;;;;;;;;;20.00;20.00;;;;;;;;5202303;28;8824;-74
2022/07/14 05:44:04;;;;;;;;;13.75;13.75;;;;;;;;5202328;28;8777;-74
2022/07/14 05:46:36;;;;;;;;;16.50;16.50;;;;;;;;5202597;28;8821;-74
2022/07/14 05:49:08;;;;;;;;;14.50;14.50;;;;;;;;5185860;28;8910;-75
2022/07/14 05:51:38;;;;;;;;;14.25;14.25;;;;;;;;5169405;28;8872;-74
2022/07/14 05:54:10;;;;;;;;;19.00;19.00;;;;;;;;5170214;28;8788;-74
2022/07/14 05:56:40;;;;;;;;;15.00;15.00;;;;;;;;5203225;28;8834;-74
2022/07/14 05:59:30;;;;;;;;;16.00;16.00;;;;;;;;5204901;28;8911;-75
2022/07/14 06:02:01;;;;;;;;;15.00;15.00;;;;;;;;5186815;28;9552;-74
2022/07/14 06:04:33;;;;;;;;;14.75;14.75;;;;;;;;5203011;28;8793;-75
2022/07/14 06:07:06;;;;;;;;;13.00;13.00;;;;;;;;5170541;28;8866;-74
2022/07/14 06:09:38;;;;;;;;;13.00;13.00;;;;;;;;5187027;28;8808;-74
2022/07/14 06:12:10;;;;;;;;;9.50;9.50;;;;;;;;5189966;28;8785;-74
2022/07/14 06:14:44;;;;;;;;;14.50;14.50;;;;;;;;5158335;28;8789;-74
2022/07/14 06:17:16;;;;;;;;;12.25;12.25;;;;;;;;5190131;28;8800;-75
2022/07/14 06:19:47;;;;;;;;;15.00;15.00;;;;;;;;5206473;28;8789;-74
2022/07/14 06:22:20;;;;;;;;;13.25;13.25;;;;;;;;5190410;28;8778;-74
2022/07/14 06:24:51;;;;;;;;;13.50;13.50;;;;;;;;5190329;28;8903;-74
2022/07/14 06:27:26;;;;;;;;;11.25;11.25;;;;;;;;5190296;28;8800;-74
2022/07/14 06:29:58;;;;;;;;;12.50;12.50;;;;;;;;5190209;28;8800;-74
2022/07/14 06:32:29;;;;;;;;;11.75;11.75;;;;;;;;5189995;28;9483;-75
2022/07/14 06:35:00;;;;;;;;;12.25;12.25;;;;;;;;5157835;28;8785;-75
2022/07/14 06:37:51;;;;;;;;;16.00;16.00;;;;;;;;5189868;28;8797;-74
2022/07/14 06:40:23;;;;;;;;;15.00;15.00;;;;;;;;5189710;28;8785;-74
2022/07/14 06:42:56;;;;;;;;;10.25;10.25;;;;;;;;5189524;28;8816;-74
2022/07/14 06:45:50;;;;;;;;;10.50;10.50;;;;;;;;5187628;28;8812;-74
2022/07/14 06:48:39;;;;;;;;;11.50;11.50;;;;;;;;5207337;28;8803;-74
2022/07/14 06:51:10;;;;;;;;;10.33;10.33;;;;;;;;5173150;28;8913;-74
2022/07/14 06:53:41;;;;;;;;;12.00;12.00;;;;;;;;5205891;28;8902;-75
2022/07/14 06:56:12;;;;;;;;;12.25;12.25;;;;;;;;5205999;28;8833;-75
2022/07/14 06:59:01;;;;;;;;;11.75;11.75;;;;;;;;5176346;28;9481;-74
2022/07/14 07:01:32;;;;;;;;;14.67;14.67;;;;;;;;5173702;28;8785;-74
2022/07/14 07:04:04;;;;;;;;;13.75;13.75;;;;;;;;5205977;28;8789;-74
2022/07/14 07:06:53;;;;;;;;;15.50;15.50;;;;;;;;5175659;28;8870;-74
2022/07/14 07:09:24;;;;;;;;;15.00;14.75;;;;;;;;5205941;28;8777;-74
2022/07/14 07:11:55;;;;;;;;;14.75;14.75;;;;;;;;5206962;28;8793;-75
2022/07/14 07:14:44;;;;;;;;;12.50;12.50;;;;;;;;5206994;28;8793;-73
2022/07/14 07:17:15;;;;;;;;;21.33;21.33;;;;;;;;5205430;28;8809;-74
2022/07/14 07:19:46;;;;;;;;;15.67;15.67;;;;;;;;5206717;28;9338;-74
2022/07/14 07:22:17;;;;;;;;;14.75;14.75;;;;;;;;5204487;28;9801;-73
2022/07/14 07:24:48;;;;;;;;;20.00;20.00;;;;;;;;5206817;28;8813;-75
2022/07/14 07:27:19;;;;;;;;;15.75;15.75;;;;;;;;5205835;28;8934;-74
2022/07/14 07:29:50;;;;;;;;;18.00;17.75;;;;;;;;5205428;28;8924;-74
2022/07/14 07:32:21;;;;;;;;;15.00;15.00;;;;;;;;5205309;28;8943;-75
2022/07/14 07:34:52;;;;;;;;;14.25;14.25;;;;;;;;5205143;28;9712;-75
2022/07/14 07:37:23;;;;;;;;;11.50;11.50;;;;;;;;5205362;28;8935;-75
2022/07/14 07:39:56;;;;;;;;;16.50;16.50;;;;;;;;5172466;28;8793;-76
2022/07/14 07:42:46;;;;;;;;;18.00;18.00;;;;;;;;5206415;28;8785;-73
2022/07/14 07:45:17;;;;;;;;;19.00;19.00;;;;;;;;5205206;28;8939;-74
2022/07/14 07:47:48;;;;;;;;;22.75;22.50;;;;;;;;5188452;28;9662;-75
2022/07/14 07:50:19;;;;;;;;;22.25;22.25;;;;;;;;5156340;28;8800;-74
2022/07/14 07:52:50;;;;;;;;;35.25;33.00;;;;;;;;5188535;28;8820;-74
2022/07/14 07:55:21;;;;;;;;;41.00;36.00;;;;;;;;5188387;28;8825;-75
2022/07/14 07:57:52;;;;;;;;;25.50;25.50;;;;;;;;5205265;28;10706;-74
2022/07/14 08:00:23;;;;;;;;;20.25;20.25;;;;;;;;5188631;28;8792;-75
2022/07/14 08:02:54;;;;;;;;;20.50;20.50;;;;;;;;5188473;28;8800;-75
2022/07/14 08:05:26;;;;;;;;;21.00;21.00;;;;;;;;5188174;28;8777;-73
2022/07/14 08:08:15;;;;;;;;;16.50;16.50;;;;;;;;5188262;28;8854;-74
2022/07/14 08:10:46;;;;;;;;;19.33;19.00;;;;;;;;5188344;28;8781;-74
2022/07/14 08:13:17;;;;;;;;;21.75;21.75;;;;;;;;5205650;28;10677;-75
2022/07/14 08:15:48;;;;;;;;;25.33;25.33;;;;;;;;5171724;28;8860;-74
2022/07/14 08:18:19;;;;;;;;;19.00;19.00;;;;;;;;5187930;28;8825;-74
2022/07/14 08:20:51;;;;;;;;;18.00;18.00;;;;;;;;5204554;28;9484;-74
2022/07/14 08:23:22;;;;;;;;;15.50;15.50;;;;;;;;5204449;28;9933;-75
2022/07/14 08:25:54;;;;;;;;;15.00;15.00;;;;;;;;5188201;28;8816;-76
2022/07/14 08:28:25;;;;;;;;;16.50;16.50;;;;;;;;5171513;28;8773;-76
2022/07/14 08:30:56;;;;;;;;;17.75;17.75;;;;;;;;5187801;28;8773;-76
2022/07/14 08:33:27;;;;;;;;;14.75;14.75;;;;;;;;5171001;28;8792;-75
2022/07/14 08:35:58;;;;;;;;;14.00;14.00;;;;;;;;5205429;28;8821;-76
2022/07/14 08:38:29;;;;;;;;;19.00;18.50;;;;;;;;5204377;28;8819;-74
2022/07/14 08:41:03;;;;;;;;;14.50;14.25;;;;;;;;5187898;28;8785;-75
2022/07/14 08:43:38;;;;;;;;;14.75;14.75;;;;;;;;5187547;28;8797;-78
2022/07/14 08:46:10;;;;;;;;;20.75;18.25;;;;;;;;5171518;28;9511;-77
2022/07/14 08:48:41;;;;;;;;;18.75;18.75;;;;;;;;5187417;28;8777;-74
2022/07/14 08:51:13;;;;;;;;;12.25;12.25;;;;;;;;5155120;28;8784;-75
2022/07/14 08:53:44;;;;;;;;;15.25;15.25;;;;;;;;5170862;28;8824;-75
2022/07/14 08:56:15;;;;;;;;;18.50;18.50;;;;;;;;5155166;28;8801;-75
2022/07/14 08:58:47;;;;;;;;;21.50;21.50;;;;;;;;5187392;28;8801;-76
2022/07/14 09:01:18;;;;;;;;;19.25;19.25;;;;;;;;5187278;28;8807;-74
2022/07/14 09:03:53;;;;;;;;;16.50;16.50;;;;;;;;5170913;28;8899;-75
2022/07/14 09:06:53;;;;;;;;;15.75;15.75;;;;;;;;5187197;28;8805;-75
2022/07/14 09:09:25;;;;;;;;;12.00;12.00;;;;;;;;5179023;28;8789;-74
2022/07/14 09:12:04;;;;;;;;;16.25;16.25;;;;;;;;5187612;28;8793;-74
2022/07/14 09:17:27;;;;;;;;;15.00;15.00;;;;;;;;5187071;28;8809;-75
2022/07/14 09:20:16;;;;;;;;;18.00;17.00;;;;;;;;5204670;28;8875;-75
2022/07/14 09:22:47;;;;;;;;;17.00;17.00;;;;;;;;5203627;28;8781;-75
2022/07/14 09:25:21;;;;;;;;;12.50;12.50;;;;;;;;5187559;28;11527;-74
2022/07/14 09:27:53;;;;;;;;;18.50;18.50;;;;;;;;5187409;28;8796;-73
2022/07/14 09:30:42;;;;;;;;;16.50;16.50;;;;;;;;5204633;28;8807;-75
2022/07/14 09:33:13;;;;;;;;;17.33;17.33;;;;;;;;5203294;28;8793;-75
2022/07/14 09:35:45;;;;;;;;;18.25;18.25;;;;;;;;5204720;28;10835;-75
2022/07/14 09:38:17;;;;;;;;;12.25;12.25;;;;;;;;5170922;28;9515;-74
2022/07/14 09:40:49;;;;;;;;;15.25;15.25;;;;;;;;5203512;28;9669;-75
2022/07/14 09:43:20;;;;;;;;;14.00;14.00;;;;;;;;5203514;28;8769;-74
2022/07/14 09:45:50;;;;;;;;;15.25;15.25;;;;;;;;5205680;28;8808;-75
2022/07/14 09:48:22;;;;;;;;;12.67;12.67;;;;;;;;5191028;28;8793;-75
2022/07/14 09:50:57;;;;;;;;;12.50;12.50;;;;;;;;5207351;28;8972;-74
2022/07/14 09:53:30;;;;;;;;;12.50;12.50;;;;;;;;5206997;28;8813;-75
2022/07/14 09:56:19;;;;;;;;;10.00;10.00;;;;;;;;5207398;28;9527;-74
2022/07/14 09:58:56;;;;;;;;;11.67;11.67;;;;;;;;5207492;28;8807;-75
2022/07/14 10:01:27;;;;;;;;;10.50;10.50;;;;;;;;5190626;28;11450;-75
2022/07/14 10:03:59;;;;;;;;;9.75;9.75;;;;;;;;5207456;28;9578;-75
2022/07/14 10:06:30;;;;;;;;;9.25;9.25;;;;;;;;5191015;28;8812;-74
2022/07/14 10:09:20;;;;;;;;;7.00;7.00;;;;;;;;5194166;28;8816;-75
2022/07/14 10:11:52;;;;;;;;;10.00;10.00;;;;;;;;5157986;28;8831;-75
2022/07/14 10:14:26;;;;;;;;;7.00;7.00;;;;;;;;5219923;28;9587;-75
2022/07/14 10:16:59;;;;;;;;;9.00;9.00;;;;;;;;5227658;28;8815;-75
2022/07/14 10:19:30;;;;;;;;;12.00;12.00;;;;;;;;5228511;28;8821;-75
2022/07/14 10:22:02;;;;;;;;;11.50;11.50;;;;;;;;5229169;28;8775;-74
2022/07/14 10:24:52;;;;;;;;;9.50;9.50;;;;;;;;5228624;28;8790;-75
2022/07/14 10:27:23;;;;;;;;;14.00;14.00;;;;;;;;5210206;28;8787;-75
2022/07/14 10:29:57;;;;;;;;;13.00;13.00;;;;;;;;5210643;28;8909;-73
2022/07/14 10:32:46;;;;;;;;;13.00;13.00;;;;;;;;5227930;28;8802;-74
2022/07/14 10:35:26;;;;;;;;;10.00;10.00;;;;;;;;5173692;28;8797;-73
2022/07/14 10:37:59;;;;;;;;;9.00;9.00;;;;;;;;5207811;28;8777;-73
2022/07/14 10:40:36;;;;;;;;;9.75;9.75;;;;;;;;5217377;28;8842;-73
2022/07/14 10:43:12;;;;;;;;;10.00;10.00;;;;;;;;5226709;28;8926;-73
2022/07/14 10:45:48;;;;;;;;;10.25;10.25;;;;;;;;5194067;28;8783;-73
2022/07/14 10:48:28;;;;;;;;;9.50;9.50;;;;;;;;5209767;28;8791;-73
2022/07/14 10:51:19;;;;;;;;;11.25;11.25;;;;;;;;5209633;28;8925;-72
2022/07/14 10:54:11;;;;;;;;;9.00;9.00;;;;;;;;5206537;28;8810;-73
2022/07/14 10:56:43;;;;;;;;;10.75;10.75;;;;;;;;5208105;28;8829;-74
2022/07/14 10:59:27;;;;;;;;;10.25;10.25;;;;;;;;5226125;28;8859;-73
2022/07/14 11:02:13;;;;;;;;;12.50;12.50;;;;;;;;5208377;28;8767;-73
2022/07/14 11:05:03;;;;;;;;;19.75;19.75;;;;;;;;5224768;28;8779;-73
2022/07/14 11:07:39;;;;;;;;;10.25;10.25;;;;;;;;5208141;28;8852;-75
2022/07/14 11:10:24;;;;;;;;;11.00;11.00;;;;;;;;5208334;28;8786;-74
2022/07/14 11:13:04;;;;;;;;;12.50;12.50;;;;;;;;5208126;28;8816;-77
2022/07/14 11:15:43;;;;;;;;;12.50;12.50;;;;;;;;5207505;28;8853;-75
2022/07/14 11:18:17;;;;;;;;;10.00;10.00;;;;;;;;5207408;28;8920;-74
2022/07/14 11:20:50;;;;;;;;;8.25;8.25;;;;;;;;5225819;28;9344;-72
2022/07/14 11:23:22;;;;;;;;;7.50;7.50;;;;;;;;5224238;28;8799;-72
2022/07/14 11:25:54;;;;;;;;;13.25;13.25;;;;;;;;5190948;28;9720;-73
2022/07/14 11:28:31;;;;;;;;;9.50;9.50;;;;;;;;5207465;28;8815;-74
2022/07/14 11:31:23;;;;;;;;;8.75;8.75;;;;;;;;5225472;28;8895;-73
2022/07/14 11:37:00;;;;;;;;;11.00;11.00;;;;;;;;5225545;28;8822;-75
2022/07/14 11:39:34;;;;;;;;;13.00;13.00;;;;;;;;5207865;28;8826;-73
2022/07/14 11:42:08;;;;;;;;;10.00;10.00;;;;;;;;5223928;28;9513;-75
2022/07/14 11:44:39;;;;;;;;;8.50;8.50;;;;;;;;5225712;28;8960;-76
2022/07/14 11:47:23;;;;;;;;;5.00;5.00;;;;;;;;5207900;28;8930;-75
2022/07/14 11:49:54;;;;;;;;;8.50;8.50;;;;;;;;5206554;28;11397;-75
2022/07/14 11:52:28;;;;;;;;;6.67;6.67;;;;;;;;5224918;28;8814;-75
2022/07/14 11:55:05;;;;;;;;;6.00;6.00;;;;;;;;5224380;28;12153;-76
2022/07/14 11:57:48;;;;;;;;;6.25;6.25;;;;;;;;5222357;28;8783;-75
2022/07/14 12:00:20;;;;;;;;;15.75;15.75;;;;;;;;5204107;28;8872;-74
2022/07/14 12:02:52;;;;;;;;;18.00;18.00;;;;;;;;5203823;28;9426;-75
2022/07/14 12:05:27;;;;;;;;;15.50;15.50;;;;;;;;5199260;28;8819;-74
2022/07/14 12:08:02;;;;;;;;;13.00;13.00;;;;;;;;5196208;28;8777;-73
2022/07/14 12:10:36;;;;;;;;;12.50;12.50;;;;;;;;5200255;28;8818;-74
2022/07/14 12:13:08;;;;;;;;;4.75;4.75;;;;;;;;5218689;28;8787;-74
2022/07/14 12:16:05;;;;;;;;;9.00;9.00;;;;;;;;5206008;28;8849;-73
2022/07/14 12:18:37;;;;;;;;;9.50;9.25;;;;;;;;5224238;28;8929;-74
2022/07/14 12:21:09;;;;;;;;;7.00;7.00;;;;;;;;5224517;28;8953;-75
2022/07/14 12:23:57;;;;;;;;;8.67;8.67;;;;;;;;5221652;28;8950;-73
2022/07/14 12:26:29;;;;;;;;;7.00;7.00;;;;;;;;5204883;28;8880;-73
2022/07/14 12:29:02;;;;;;;;;8.50;8.50;;;;;;;;5225674;28;8805;-74
2022/07/14 12:31:38;;;;;;;;;8.50;8.50;;;;;;;;5225740;28;8833;-75
2022/07/14 12:34:10;;;;;;;;;6.50;6.50;;;;;;;;5193337;28;8896;-75
2022/07/14 12:36:41;;;;;;;;;6.00;6.00;;;;;;;;5218473;28;8888;-74
2022/07/14 12:39:13;;;;;;;;;6.50;6.50;;;;;;;;5232009;28;8772;-74
2022/07/14 12:41:46;;;;;;;;;6.50;6.50;;;;;;;;5229085;28;8791;-74
2022/07/14 12:44:17;;;;;;;;;5.75;5.75;;;;;;;;5208275;28;9482;-74
2022/07/14 12:47:06;;;;;;;;;9.25;9.25;;;;;;;;5225880;28;8790;-74
2022/07/14 12:49:55;;;;;;;;;9.25;9.25;;;;;;;;5208374;28;8751;-75
2022/07/14 12:52:27;;;;;;;;;8.00;8.00;;;;;;;;5225779;28;8829;-75
2022/07/14 12:54:58;;;;;;;;;10.00;10.00;;;;;;;;5171249;28;8781;-74
2022/07/14 12:57:32;;;;;;;;;6.00;6.00;;;;;;;;5179092;28;8791;-74
2022/07/14 13:00:10;;;;;;;;;6.25;6.25;;;;;;;;5225496;28;9533;-73
2022/07/14 13:02:41;;;;;;;;;11.00;11.00;;;;;;;;5224246;28;8795;-73
2022/07/14 13:05:14;;;;;;;;;9.75;9.75;;;;;;;;5224285;28;8802;-73
2022/07/14 13:07:45;;;;;;;;;7.50;7.50;;;;;;;;5190943;28;8785;-74
2022/07/14 13:10:53;;;;;;;;;7.00;7.00;;;;;;;;5194115;28;8811;-74
2022/07/14 13:13:40;;;;;;;;;5.00;5.00;;;;;;;;5224096;28;8925;-73
2022/07/14 13:16:15;;;;;;;;;7.75;7.75;;;;;;;;5211414;28;8843;-73
2022/07/14 13:19:05;;;;;;;;;6.25;6.25;;;;;;;;5203612;28;8801;-74
2022/07/14 13:21:55;;;;;;;;;8.75;8.75;;;;;;;;5158295;28;8839;-74
2022/07/14 13:24:29;;;;;;;;;9.00;9.00;;;;;;;;5191223;28;8827;-75
2022/07/14 13:27:01;;;;;;;;;7.25;7.25;;;;;;;;5190803;28;8797;-74
2022/07/14 13:29:33;;;;;;;;;7.00;7.00;;;;;;;;5208751;28;8781;-75
2022/07/14 13:32:05;;;;;;;;;6.00;6.00;;;;;;;;5207463;28;8859;-74
2022/07/14 13:34:36;;;;;;;;;6.33;6.33;;;;;;;;5207369;28;8803;-74
2022/07/14 13:37:09;;;;;;;;;5.50;5.50;;;;;;;;5223207;28;9727;-74
2022/07/14 13:39:42;;;;;;;;;8.25;8.25;;;;;;;;5211773;28;8922;-75
2022/07/14 13:42:13;;;;;;;;;7.75;7.75;;;;;;;;5211530;28;8810;-74
2022/07/14 13:44:44;;;;;;;;;11.33;11.33;;;;;;;;5211333;28;8806;-75
2022/07/14 13:47:15;;;;;;;;;24.00;24.00;;;;;;;;5227906;28;10492;-74
2022/07/14 13:52:36;;;;;;;;;6.00;5.00;;;;;;;;5228496;28;8830;-75
2022/07/14 13:55:07;;;;;;;;;11.00;11.00;;;;;;;;5227748;28;8779;-77
2022/07/14 13:57:38;;;;;;;;;10.00;10.00;;;;;;;;5227740;28;8807;-76
2022/07/14 14:00:09;;;;;;;;;9.25;9.25;;;;;;;;5177958;28;8811;-76
2022/07/14 14:05:30;;;;;;;;;11.00;11.00;;;;;;;;5210788;28;8818;-75
2022/07/14 14:08:01;;;;;;;;;1.75;1.75;;;;;;;;5209214;28;8818;-74
2022/07/14 14:10:32;;;;;;;;;8.50;8.50;;;;;;;;5226835;28;8871;-75
2022/07/14 14:13:03;;;;;;;;;7.25;7.25;;;;;;;;5209097;28;9640;-74
2022/07/14 14:15:34;;;;;;;;;6.00;6.00;;;;;;;;5225567;28;8830;-75
2022/07/14 14:18:05;;;;;;;;;5.75;5.75;;;;;;;;5209299;28;8815;-75
2022/07/14 14:20:55;;;;;;;;;5.00;5.00;;;;;;;;5226486;28;8845;-74
2022/07/14 14:23:27;;;;;;;;;15.00;15.00;;;;;;;;5225103;28;8825;-74
2022/07/14 14:25:59;;;;;;;;;11.50;11.50;;;;;;;;5225809;28;8972;-74
2022/07/14 14:28:31;;;;;;;;;8.00;8.00;;;;;;;;5225887;28;8858;-75
2022/07/14 14:31:02;;;;;;;;;7.00;7.00;;;;;;;;5188196;28;8796;-75
2022/07/14 14:33:51;;;;;;;;;10.00;10.00;;;;;;;;5206448;28;8799;-74
2022/07/14 14:36:22;;;;;;;;;7.50;7.50;;;;;;;;5208481;28;8847;-75
2022/07/14 14:38:53;;;;;;;;;37.20;33.40;;;;;;;;5204144;28;8810;-76
2022/07/14 14:41:29;;;;;;;;;9.75;9.75;;;;;;;;5202279;28;8929;-76
2022/07/14 14:44:00;;;;;;;;;7.75;7.75;;;;;;;;5228019;28;8810;-76
2022/07/14 14:46:32;;;;;;;;;6.00;6.00;;;;;;;;5208594;28;8783;-74
2022/07/14 14:49:24;;;;;;;;;12.75;12.75;;;;;;;;5211073;28;8791;-73
2022/07/14 14:52:14;;;;;;;;;7.00;7.00;;;;;;;;5227529;28;9592;-73
2022/07/14 14:54:45;;;;;;;;;7.00;7.00;;;;;;;;5226851;28;8801;-73
2022/07/14 14:57:35;;;;;;;;;6.00;6.00;;;;;;;;5210300;28;8795;-72
2022/07/14 15:00:08;;;;;;;;;8.00;8.00;;;;;;;;5226928;28;8791;-72
2022/07/14 15:02:58;;;;;;;;;10.50;10.50;;;;;;;;5210650;28;8778;-72
2022/07/14 15:05:29;;;;;;;;;7.00;7.00;;;;;;;;5225626;28;8822;-72
2022/07/14 15:08:00;;;;;;;;;12.50;12.50;;;;;;;;5203504;28;8832;-73
2022/07/14 15:10:31;;;;;;;;;11.25;11.25;;;;;;;;5218773;28;8799;-74
2022/07/14 15:13:02;;;;;;;;;8.00;8.00;;;;;;;;5182151;28;8857;-74
2022/07/14 15:15:36;;;;;;;;;17.50;17.50;;;;;;;;5189382;28;8841;-75
2022/07/14 15:18:10;;;;;;;;;7.50;7.50;;;;;;;;5208252;28;8807;-73
2022/07/14 15:20:41;;;;;;;;;8.00;8.00;;;;;;;;5220102;28;8810;-73
2022/07/14 15:23:31;;;;;;;;;7.50;7.50;;;;;;;;5202274;28;8851;-76
2022/07/14 15:26:21;;;;;;;;;11.25;11.25;;;;;;;;5209393;28;8957;-75
2022/07/14 15:29:10;;;;;;;;;4.00;4.00;;;;;;;;5209192;28;8829;-75
2022/07/14 15:31:42;;;;;;;;;7.00;7.00;;;;;;;;5208807;28;8789;-73
2022/07/14 15:34:13;;;;;;;;;8.67;8.67;;;;;;;;5209011;28;8782;-74
2022/07/14 15:36:44;;;;;;;;;8.75;8.75;;;;;;;;5225074;28;11413;-74
2022/07/14 15:42:06;;;;;;;;;11.00;11.00;;;;;;;;5225386;28;8851;-75